createdAt,value
2018-07-09T00:01:40.216Z,79.69
2018-07-09T00:04:09.070Z,80.26
2018-07-09T00:06:37.887Z,80.12
2018-07-09T00:09:07.312Z,80.40
2018-07-09T00:11:35.979Z,80.91
2018-07-09T00:14:05.003Z,80.78
2018-07-09T00:16:33.912Z,80.31
2018-07-09T00:19:02.748Z,80.61
2018-07-09T00:21:31.760Z,81.13
2018-07-09T00:24:00.652Z,81.30
2018-07-09T00:26:29.601Z,81.33
2018-07-09T00:28:58.480Z,82.31
2018-07-09T00:31:27.664Z,82.22
2018-07-09T00:33:56.589Z,82.02
2018-07-09T00:36:25.428Z,82.33
2018-07-09T00:38:54.454Z,82.74
2018-07-09T00:41:24.237Z,82.90
2018-07-09T00:43:53.070Z,83.19
2018-07-09T00:46:21.945Z,83.31
2018-07-09T00:48:50.891Z,83.65
2018-07-09T00:51:19.804Z,83.01
2018-07-09T00:53:48.538Z,82.40
2018-07-09T00:56:17.412Z,83.34
2018-07-09T00:58:46.248Z,83.44
2018-07-09T01:01:15.020Z,83.56
2018-07-09T01:03:43.919Z,83.90
2018-07-09T01:06:12.724Z,83.65
2018-07-09T01:08:41.704Z,83.11
2018-07-09T01:11:27.421Z,84.03
2018-07-09T01:13:56.335Z,83.75
2018-07-09T01:16:24.938Z,85.90
2018-07-09T01:18:53.783Z,84.73
2018-07-09T01:21:22.719Z,84.84
2018-07-09T01:23:51.598Z,85.01
2018-07-09T01:26:20.543Z,86.73
2018-07-09T01:28:49.537Z,86.53
2018-07-09T01:31:18.351Z,84.31
2018-07-09T01:33:47.148Z,84.72
2018-07-09T01:36:15.806Z,84.86
2018-07-09T01:38:44.658Z,84.43
2018-07-09T01:41:13.817Z,84.96
2018-07-09T01:43:42.660Z,84.72
2018-07-09T01:46:11.513Z,84.43
2018-07-09T01:48:40.118Z,85.00
2018-07-09T01:51:09.026Z,85.09
2018-07-09T01:53:37.826Z,85.19
2018-07-09T01:56:06.657Z,84.92
2018-07-09T01:58:35.446Z,85.09
2018-07-09T02:01:04.315Z,85.00
2018-07-09T02:03:33.180Z,85.35
2018-07-09T02:06:02.033Z,85.47
2018-07-09T02:08:30.638Z,85.00
2018-07-09T02:10:59.497Z,84.41
2018-07-09T02:13:28.259Z,85.33
2018-07-09T02:15:57.165Z,85.59
2018-07-09T02:18:25.951Z,85.40
2018-07-09T02:20:54.817Z,85.29
2018-07-09T02:23:23.647Z,85.25
2018-07-09T02:25:52.486Z,85.04
2018-07-09T02:28:21.211Z,85.02
2018-07-09T02:30:50.071Z,85.55
2018-07-09T02:33:18.965Z,86.07
2018-07-09T02:35:47.740Z,85.90
2018-07-09T02:38:16.576Z,85.60
2018-07-09T02:40:45.494Z,85.25
2018-07-09T02:43:14.373Z,86.03
2018-07-09T02:45:49.111Z,85.93
2018-07-09T02:48:17.766Z,85.64
2018-07-09T02:50:46.784Z,85.89
2018-07-09T02:53:15.615Z,85.36
2018-07-09T02:55:44.383Z,85.45
2018-07-09T02:58:13.227Z,85.22
2018-07-09T03:00:42.062Z,84.36
2018-07-09T03:03:10.968Z,84.66
2018-07-09T03:05:39.765Z,84.83
2018-07-09T03:08:08.610Z,84.85
2018-07-09T03:10:37.440Z,84.36
2018-07-09T03:13:06.376Z,83.70
2018-07-09T03:15:35.219Z,84.38
2018-07-09T03:18:04.166Z,84.65
2018-07-09T03:20:33.000Z,84.59
2018-07-09T03:23:01.757Z,84.09
2018-07-09T03:25:30.612Z,85.32
2018-07-09T03:27:59.279Z,84.61
2018-07-09T03:30:28.117Z,84.91
2018-07-09T03:32:56.928Z,85.21
2018-07-09T03:35:25.779Z,84.77
2018-07-09T03:37:54.625Z,85.05
2018-07-09T03:40:23.686Z,85.34
2018-07-09T03:42:52.475Z,85.18
2018-07-09T03:45:27.512Z,84.79
2018-07-09T03:47:56.351Z,84.84
2018-07-09T03:50:25.203Z,84.48
2018-07-09T03:52:53.973Z,82.94
2018-07-09T03:55:22.803Z,82.13
2018-07-09T03:57:51.700Z,81.30
2018-07-09T04:00:20.384Z,80.12
2018-07-09T04:02:49.252Z,81.51
2018-07-09T04:05:18.056Z,81.82
2018-07-09T04:07:46.732Z,82.96
2018-07-09T04:10:15.600Z,83.88
2018-07-09T04:12:44.384Z,84.59
2018-07-09T04:15:13.308Z,84.54
2018-07-09T04:17:42.148Z,84.86
2018-07-09T04:20:10.973Z,85.17
2018-07-09T04:22:39.797Z,84.80
2018-07-09T04:25:08.796Z,84.89
2018-07-09T04:27:37.675Z,84.11
2018-07-09T04:30:06.481Z,84.62
2018-07-09T04:32:35.189Z,85.48
2018-07-09T04:35:04.051Z,85.22
2018-07-09T04:37:33.066Z,85.45
2018-07-09T04:40:01.776Z,84.82
2018-07-09T04:42:30.629Z,83.26
2018-07-09T04:44:59.291Z,82.03
2018-07-09T04:47:28.387Z,79.13
2018-07-09T04:49:57.150Z,80.53
2018-07-09T04:52:25.859Z,80.83
2018-07-09T04:54:54.741Z,81.49
2018-07-09T04:57:23.532Z,81.69
2018-07-09T04:59:52.294Z,81.61
2018-07-09T05:02:21.129Z,82.02
2018-07-09T05:04:50.091Z,82.34
2018-07-09T05:07:18.956Z,82.49
2018-07-09T05:09:47.739Z,83.44
2018-07-09T05:12:16.593Z,85.23
2018-07-09T05:14:45.380Z,84.91
2018-07-09T05:17:14.232Z,85.32
2018-07-09T05:19:43.087Z,83.80
2018-07-09T05:22:11.693Z,83.14
2018-07-09T05:24:40.542Z,82.76
2018-07-09T05:27:09.509Z,82.35
2018-07-09T05:29:38.341Z,83.05
2018-07-09T05:32:07.160Z,82.65
2018-07-09T05:34:35.983Z,82.51
2018-07-09T05:37:04.845Z,81.37
2018-07-09T05:39:40.489Z,81.34
2018-07-09T05:42:09.505Z,81.30
2018-07-09T05:44:39.119Z,81.05
2018-07-09T05:47:08.768Z,80.76
2018-07-09T05:49:37.712Z,80.34
2018-07-09T05:52:06.709Z,80.74
2018-07-09T05:54:35.923Z,80.58
2018-07-09T05:57:04.744Z,80.51
2018-07-09T05:59:33.552Z,80.54
2018-07-09T06:02:03.270Z,80.64
2018-07-09T06:04:32.141Z,80.87
2018-07-09T06:07:01.024Z,80.97
2018-07-09T06:09:29.933Z,80.46
2018-07-09T06:11:58.788Z,81.41
2018-07-09T06:14:27.652Z,80.86
2018-07-09T06:16:56.413Z,81.27
2018-07-09T06:19:25.295Z,81.30
2018-07-09T06:21:54.264Z,81.68
2018-07-09T06:24:23.084Z,82.04
2018-07-09T06:26:51.799Z,81.18
2018-07-09T06:29:20.608Z,81.23
2018-07-09T06:31:49.338Z,81.64
2018-07-09T06:34:18.163Z,81.23
2018-07-09T06:36:47.044Z,81.33
2018-07-09T06:39:15.694Z,81.47
2018-07-09T06:41:44.519Z,81.09
2018-07-09T06:44:13.511Z,80.49
2018-07-09T06:46:42.180Z,80.61
2018-07-09T06:49:10.992Z,80.21
2018-07-09T06:51:39.661Z,80.15
2018-07-09T06:54:08.490Z,79.26
2018-07-09T06:56:37.395Z,79.06
2018-07-09T06:59:06.231Z,78.45
2018-07-09T07:01:35.040Z,78.01
2018-07-09T07:04:03.910Z,78.42
2018-07-09T07:06:32.809Z,78.82
2018-07-09T07:09:01.769Z,78.91
2018-07-09T07:11:30.691Z,77.79
2018-07-09T07:13:59.481Z,77.62
2018-07-09T07:16:28.269Z,77.25
2018-07-09T07:18:57.135Z,77.31
2018-07-09T07:21:25.966Z,76.65
2018-07-09T07:23:54.639Z,77.53
2018-07-09T07:26:23.525Z,77.16
2018-07-09T07:28:52.468Z,76.62
2018-07-09T07:31:21.344Z,75.76
2018-07-09T07:33:50.338Z,73.01
2018-07-09T07:36:19.138Z,70.21
2018-07-09T07:38:48.020Z,68.55
2018-07-09T07:41:16.847Z,65.29
2018-07-09T07:43:45.749Z,68.07
2018-07-09T07:46:14.604Z,68.92
2018-07-09T07:48:43.443Z,70.04
2018-07-09T07:51:12.283Z,70.30
2018-07-09T07:53:41.144Z,69.91
2018-07-09T07:56:09.808Z,70.04
2018-07-09T07:58:38.708Z,69.93
2018-07-09T08:01:07.626Z,71.03
2018-07-09T08:03:36.300Z,70.91
2018-07-09T08:06:07.127Z,71.45
2018-07-09T08:08:36.144Z,70.65
2018-07-09T08:11:11.069Z,69.52
2018-07-09T08:13:34.586Z,69.35
2018-07-09T08:16:03.434Z,69.64
2018-07-09T08:18:32.123Z,68.26
2018-07-09T08:21:00.786Z,69.11
2018-07-09T08:23:29.606Z,69.97
2018-07-09T08:25:58.511Z,69.98
2018-07-09T08:28:27.609Z,69.78
2018-07-09T08:30:56.492Z,69.08
2018-07-09T08:33:25.364Z,68.64
2018-07-09T08:35:54.262Z,67.49
2018-07-09T08:38:23.148Z,67.14
2018-07-09T08:40:51.829Z,67.16
2018-07-09T08:43:20.916Z,67.47
2018-07-09T08:45:49.775Z,67.45
2018-07-09T08:48:18.778Z,66.16
2018-07-09T08:50:47.624Z,66.17
2018-07-09T08:53:16.259Z,64.95
2018-07-09T08:55:45.145Z,63.97
2018-07-09T08:58:13.948Z,63.57
2018-07-09T09:00:42.839Z,62.24
2018-07-09T09:03:11.656Z,62.14
2018-07-09T09:05:40.533Z,62.63
2018-07-09T09:08:09.389Z,60.58
2018-07-09T09:10:38.181Z,60.30
2018-07-09T09:13:07.302Z,60.76
2018-07-09T09:15:36.099Z,60.21
2018-07-09T09:18:05.013Z,59.42
2018-07-09T09:20:33.804Z,61.74
2018-07-09T09:23:02.662Z,61.81
2018-07-09T09:25:31.569Z,62.28
2018-07-09T09:28:00.412Z,63.16
2018-07-09T09:30:29.268Z,62.55
2018-07-09T09:32:58.089Z,62.58
2018-07-09T09:35:26.895Z,62.61
2018-07-09T09:37:55.915Z,61.13
2018-07-09T09:40:24.773Z,60.08
2018-07-09T09:42:53.912Z,60.63
2018-07-09T09:45:28.636Z,62.26
2018-07-09T09:47:57.540Z,63.13
2018-07-09T09:50:26.340Z,63.54
2018-07-09T09:52:55.181Z,64.93
2018-07-09T09:55:24.075Z,63.99
2018-07-09T09:57:52.950Z,65.02
2018-07-09T10:00:26.378Z,62.97
2018-07-09T10:02:55.216Z,61.11
2018-07-09T10:05:23.817Z,61.33
2018-07-09T10:07:52.542Z,61.02
2018-07-09T10:10:21.420Z,59.90
2018-07-09T10:12:50.322Z,59.42
2018-07-09T10:15:19.438Z,61.28
2018-07-09T10:17:48.291Z,60.75
2018-07-09T10:20:17.220Z,60.92
2018-07-09T10:22:46.101Z,61.57
2018-07-09T10:25:14.963Z,60.98
2018-07-09T10:27:43.777Z,58.97
2018-07-09T10:30:12.611Z,60.01
2018-07-09T10:32:41.580Z,60.50
2018-07-09T10:35:10.626Z,59.53
2018-07-09T10:37:39.697Z,60.27
2018-07-09T10:40:08.676Z,60.14
2018-07-09T10:42:37.592Z,59.50
2018-07-09T10:45:06.306Z,57.93
2018-07-09T10:47:35.092Z,55.81
2018-07-09T10:50:04.156Z,55.86
2018-07-09T10:52:32.987Z,57.13
2018-07-09T10:55:01.848Z,57.38
2018-07-09T10:57:30.703Z,58.53
2018-07-09T10:59:59.568Z,57.41
2018-07-09T11:02:28.256Z,57.30
2018-07-09T11:04:57.083Z,56.29
2018-07-09T11:07:25.931Z,56.95
2018-07-09T11:09:55.080Z,55.81
2018-07-09T11:12:23.891Z,55.25
2018-07-09T11:14:52.755Z,53.86
2018-07-09T11:17:21.605Z,54.38
2018-07-09T11:19:50.387Z,53.19
2018-07-09T11:22:19.206Z,53.87
2018-07-09T11:24:47.995Z,54.56
2018-07-09T11:27:16.856Z,54.35
2018-07-09T11:29:45.667Z,53.17
2018-07-09T11:32:14.481Z,53.13
2018-07-09T11:34:43.268Z,52.12
2018-07-09T11:37:12.096Z,52.06
2018-07-09T11:39:40.901Z,51.61
2018-07-09T11:42:09.752Z,50.40
2018-07-09T11:44:38.609Z,51.07
2018-07-09T11:47:07.632Z,51.45
2018-07-09T11:49:36.455Z,51.64
2018-07-09T11:52:05.576Z,51.72
2018-07-09T11:54:34.198Z,50.55
2018-07-09T11:57:02.996Z,48.50
2018-07-09T11:59:32.107Z,48.94
2018-07-09T12:02:01.349Z,49.15
2018-07-09T12:04:30.299Z,48.64
2018-07-09T12:06:59.153Z,48.09
2018-07-09T12:09:28.417Z,47.84
2018-07-09T12:11:57.200Z,47.17
2018-07-09T12:14:25.830Z,48.53
2018-07-09T12:16:54.719Z,48.96
2018-07-09T12:19:23.526Z,49.92
2018-07-09T12:21:52.520Z,50.85
2018-07-09T12:24:21.347Z,52.81
2018-07-09T12:28:26.350Z,53.43
2018-07-09T12:30:55.343Z,54.08
2018-07-09T12:33:24.384Z,54.08
2018-07-09T12:35:53.103Z,52.83
2018-07-09T12:38:22.177Z,51.32
2018-07-09T12:40:50.882Z,53.56
2018-07-09T12:43:20.011Z,53.75
2018-07-09T12:45:49.625Z,54.70
2018-07-09T12:48:18.582Z,54.31
2018-07-09T12:50:47.588Z,53.98
2018-07-09T12:53:16.499Z,54.28
2018-07-09T12:55:45.701Z,54.47
2018-07-09T12:58:14.662Z,55.27
2018-07-09T13:00:43.741Z,55.13
2018-07-09T13:03:12.707Z,54.00
2018-07-09T13:05:41.661Z,54.08
2018-07-09T13:08:10.477Z,54.35
2018-07-09T13:10:40.575Z,54.26
2018-07-09T13:13:09.515Z,54.20
2018-07-09T13:15:38.511Z,54.26
2018-07-09T13:18:07.309Z,54.72
2018-07-09T13:20:36.344Z,55.25
2018-07-09T13:23:05.362Z,56.94
2018-07-09T13:25:34.364Z,57.83
2018-07-09T13:28:03.433Z,57.38
2018-07-09T13:30:32.598Z,58.67
2018-07-09T13:33:01.789Z,57.94
2018-07-09T13:35:30.928Z,58.52
2018-07-09T13:38:00.000Z,57.85
2018-07-09T13:40:29.186Z,57.33
2018-07-09T13:42:58.297Z,57.30
2018-07-09T13:45:33.678Z,59.21
2018-07-09T13:48:02.796Z,58.92
2018-07-09T13:50:31.969Z,59.14
2018-07-09T13:53:01.129Z,59.22
2018-07-09T13:55:30.413Z,59.36
2018-07-09T13:57:59.304Z,59.61
2018-07-09T14:00:28.091Z,58.09
2018-07-09T14:02:57.084Z,58.00
2018-07-09T14:05:25.998Z,57.26
2018-07-09T14:07:55.067Z,57.71
2018-07-09T14:10:24.022Z,56.83
2018-07-09T14:12:53.293Z,55.87
2018-07-09T14:15:22.212Z,56.65
2018-07-09T14:17:51.182Z,56.83
2018-07-09T14:20:32.755Z,57.59
2018-07-09T14:23:02.403Z,57.53
2018-07-09T14:25:31.427Z,57.89
2018-07-09T14:28:00.809Z,58.06
2018-07-09T14:30:29.845Z,57.29
2018-07-09T14:32:59.672Z,55.84
2018-07-09T14:35:28.755Z,55.01
2018-07-09T14:37:57.738Z,56.04
2018-07-09T14:40:27.003Z,55.52
2018-07-09T14:42:56.079Z,54.83
2018-07-09T14:45:31.316Z,55.60
2018-07-09T14:48:00.252Z,56.50
2018-07-09T14:50:29.321Z,54.38
2018-07-09T14:52:58.339Z,54.42
2018-07-09T14:55:27.355Z,55.29
2018-07-09T14:57:56.332Z,54.39
2018-07-09T15:00:25.326Z,55.06
2018-07-09T15:02:54.374Z,53.89
2018-07-09T15:05:23.420Z,52.68
2018-07-09T15:07:52.438Z,53.36
2018-07-09T15:10:21.430Z,54.84
2018-07-09T15:12:50.340Z,56.05
2018-07-09T15:15:19.436Z,55.94
2018-07-09T15:17:48.465Z,56.23
2018-07-09T15:20:17.427Z,56.82
2018-07-09T15:22:46.140Z,56.75
2018-07-09T15:25:15.111Z,57.63
2018-07-09T15:27:44.019Z,58.78
2018-07-09T15:30:13.047Z,60.43
2018-07-09T15:32:42.007Z,61.54
2018-07-09T15:35:10.976Z,61.71
2018-07-09T15:37:39.677Z,62.19
2018-07-09T15:40:08.469Z,63.12
2018-07-09T15:42:37.477Z,63.52
2018-07-09T15:45:06.741Z,62.97
2018-07-09T15:47:35.753Z,62.18
2018-07-09T15:50:04.494Z,62.56
2018-07-09T15:52:33.474Z,61.99
2018-07-09T15:55:02.249Z,62.03
2018-07-09T15:57:31.229Z,61.58
2018-07-09T16:00:00.215Z,61.55
2018-07-09T16:02:29.151Z,61.67
2018-07-09T16:04:58.111Z,61.52
2018-07-09T16:07:27.198Z,61.80
2018-07-09T16:09:56.115Z,59.29
2018-07-09T16:12:25.078Z,58.96
2018-07-09T16:14:53.998Z,59.14
2018-07-09T16:17:23.539Z,59.05
2018-07-09T16:19:52.525Z,59.89
2018-07-09T16:22:27.981Z,61.34
2018-07-09T16:24:56.890Z,60.45
2018-07-09T16:27:25.964Z,60.57
2018-07-09T16:29:54.956Z,61.08
2018-07-09T16:32:23.925Z,60.33
2018-07-09T16:34:52.848Z,60.28
2018-07-09T16:37:21.836Z,59.77
2018-07-09T16:39:50.768Z,59.39
2018-07-09T16:42:19.895Z,59.22
2018-07-09T16:44:48.922Z,59.24
2018-07-09T16:47:18.241Z,58.98
2018-07-09T16:49:47.185Z,57.76
2018-07-09T16:52:16.139Z,57.96
2018-07-09T16:54:45.296Z,56.07
2018-07-09T16:57:14.243Z,55.90
2018-07-09T16:59:43.045Z,55.17
2018-07-09T17:02:11.741Z,54.16
2018-07-09T17:04:40.713Z,54.21
2018-07-09T17:07:09.718Z,53.95
2018-07-09T17:09:38.708Z,52.89
2018-07-09T17:12:07.732Z,53.17
2018-07-09T17:14:36.721Z,53.67
2018-07-09T17:17:05.779Z,53.17
2018-07-09T17:19:34.947Z,53.66
2018-07-09T17:22:03.939Z,54.11
2018-07-09T17:24:32.913Z,54.02
2018-07-09T17:27:02.009Z,53.76
2018-07-09T17:29:30.872Z,54.67
2018-07-09T17:31:59.924Z,54.55
2018-07-09T17:34:28.934Z,54.56
2018-07-09T17:36:57.888Z,55.01
2018-07-09T17:39:26.903Z,55.20
2018-07-09T17:41:56.365Z,55.88
2018-07-09T17:44:25.465Z,56.37
2018-07-09T17:46:54.635Z,56.69
2018-07-09T17:49:23.582Z,56.28
2018-07-09T17:51:52.581Z,56.64
2018-07-09T17:54:21.530Z,56.47
2018-07-09T17:56:50.977Z,57.26
2018-07-09T17:59:19.940Z,56.81
2018-07-09T18:01:48.944Z,58.53
2018-07-09T18:04:17.864Z,59.46
2018-07-09T18:06:48.005Z,60.22
2018-07-09T18:09:16.957Z,60.54
2018-07-09T18:11:45.956Z,61.48
2018-07-09T18:14:14.893Z,61.33
2018-07-09T18:16:43.884Z,62.23
2018-07-09T18:19:12.931Z,62.58
2018-07-09T18:21:42.120Z,62.14
2018-07-09T18:24:11.067Z,61.76
2018-07-09T18:26:40.167Z,62.53
2018-07-09T18:29:09.181Z,63.09
2018-07-09T18:31:37.934Z,62.70
2018-07-09T18:34:07.195Z,62.77
2018-07-09T18:36:35.914Z,62.67
2018-07-09T18:39:05.659Z,62.72
2018-07-09T18:41:34.653Z,62.77
2018-07-09T18:44:03.715Z,63.91
2018-07-09T18:46:32.800Z,62.93
2018-07-09T18:49:01.932Z,64.22
2018-07-09T18:51:31.002Z,63.52
2018-07-09T18:53:59.952Z,63.93
2018-07-09T18:56:29.044Z,63.46
2018-07-09T18:58:58.120Z,63.40
2018-07-09T19:01:27.120Z,63.24
2018-07-09T19:03:56.770Z,63.40
2018-07-09T19:07:00.375Z,63.16
2018-07-09T19:09:30.520Z,62.73
2018-07-09T19:12:03.369Z,63.44
2018-07-09T19:14:44.293Z,64.12
2018-07-09T19:18:28.641Z,63.75
2018-07-09T19:21:40.868Z,63.94
2018-07-09T19:24:10.330Z,64.39
2018-07-09T19:26:37.969Z,64.45
2018-07-09T19:29:04.933Z,65.46
2018-07-09T19:31:32.041Z,66.17
2018-07-09T19:33:59.053Z,65.41
2018-07-09T19:36:26.534Z,65.74
2018-07-09T19:38:53.484Z,66.50
2018-07-09T19:41:20.494Z,66.09
2018-07-09T19:43:47.761Z,65.89
2018-07-09T19:46:14.840Z,66.10
2018-07-09T19:48:41.804Z,66.59
2018-07-09T19:51:08.765Z,66.31
2018-07-09T19:53:35.868Z,66.04
2018-07-09T19:56:03.358Z,66.52
2018-07-09T19:58:30.371Z,66.20
2018-07-09T20:00:57.376Z,66.45
2018-07-09T20:03:24.857Z,66.16
2018-07-09T20:05:51.826Z,66.76
2018-07-09T20:08:19.585Z,66.53
2018-07-09T20:10:52.084Z,66.79
2018-07-09T20:13:24.498Z,66.94
2018-07-09T20:15:57.523Z,66.36
2018-07-09T20:18:24.636Z,66.41
2018-07-09T20:20:51.666Z,66.39
2018-07-09T20:23:18.634Z,64.77
2018-07-09T20:25:46.084Z,64.53
2018-07-09T20:28:13.150Z,64.24
2018-07-09T20:30:40.180Z,63.91
2018-07-09T20:33:07.196Z,65.47
2018-07-09T20:35:34.142Z,66.19
2018-07-09T20:38:01.143Z,66.41
2018-07-09T20:40:28.102Z,66.68
2018-07-09T20:42:55.183Z,67.32
2018-07-09T20:45:28.291Z,67.27
2018-07-09T20:47:55.310Z,67.65
2018-07-09T20:50:22.326Z,67.73
2018-07-09T20:52:49.730Z,67.20
2018-07-09T20:55:16.808Z,67.17
2018-07-09T20:57:43.771Z,66.92
2018-07-09T21:00:10.776Z,66.57
2018-07-09T21:02:37.739Z,66.78
2018-07-09T21:05:04.759Z,66.72
2018-07-09T21:07:32.230Z,66.64
2018-07-09T21:09:59.243Z,66.31
2018-07-09T21:12:26.212Z,67.22
2018-07-09T21:14:53.268Z,66.90
2018-07-09T21:17:20.228Z,67.39
2018-07-09T21:19:47.307Z,67.73
2018-07-09T21:22:14.298Z,67.89
2018-07-09T21:24:41.487Z,68.26
2018-07-09T21:27:08.450Z,68.38
2018-07-09T21:29:35.407Z,68.53
2018-07-09T21:32:02.481Z,68.48
2018-07-09T21:34:29.446Z,68.62
2018-07-09T21:36:56.464Z,71.10
2018-07-09T21:39:23.433Z,75.09
2018-07-09T21:41:50.451Z,79.08
2018-07-09T21:44:17.484Z,80.27
2018-07-09T21:46:44.526Z,81.11
2018-07-09T21:49:11.483Z,82.98
2018-07-09T21:51:38.946Z,82.05
2018-07-09T21:54:06.342Z,82.16
2018-07-09T21:56:33.472Z,81.89
2018-07-09T21:59:00.441Z,81.84
2018-07-09T22:01:27.460Z,82.52
2018-07-09T22:03:54.857Z,82.27
2018-07-09T22:06:21.869Z,82.15
2018-07-09T22:08:49.373Z,81.91
2018-07-09T22:11:16.389Z,81.37
2018-07-09T22:13:43.367Z,81.29
2018-07-09T22:16:10.344Z,81.94
2018-07-09T22:18:37.368Z,82.27
2018-07-09T22:21:04.414Z,81.47
2018-07-09T22:23:31.444Z,81.52
2018-07-09T22:25:58.416Z,81.79
2018-07-09T22:28:25.384Z,81.70
2018-07-09T22:30:54.338Z,81.49
2018-07-09T22:33:23.274Z,82.19
2018-07-09T22:35:52.056Z,82.41
2018-07-09T22:38:21.408Z,82.75
2018-07-09T22:40:50.163Z,83.00
2018-07-09T22:43:35.929Z,84.39
2018-07-09T22:46:05.073Z,83.46
2018-07-09T22:48:33.905Z,83.39
2018-07-09T22:51:02.728Z,83.50
2018-07-09T22:53:31.366Z,83.27
2018-07-09T22:56:12.986Z,82.12
2018-07-09T22:58:42.532Z,82.41
2018-07-09T23:01:11.336Z,81.30
2018-07-09T23:03:40.214Z,81.96
2018-07-09T23:06:08.977Z,81.98
2018-07-09T23:08:37.803Z,81.07
2018-07-09T23:11:33.424Z,80.71
2018-07-09T23:16:47.175Z,80.58
2018-07-09T23:19:34.627Z,80.99
2018-07-09T23:22:17.062Z,81.42
2018-07-09T23:24:44.024Z,81.12
2018-07-09T23:27:10.938Z,80.94
2018-07-09T23:29:37.897Z,80.94
2018-07-09T23:32:04.874Z,81.42
2018-07-09T23:34:32.286Z,80.71
2018-07-09T23:36:59.203Z,80.79
2018-07-09T23:39:26.205Z,80.36
2018-07-09T23:41:53.210Z,79.84
2018-07-09T23:44:20.664Z,80.34
2018-07-09T23:46:47.663Z,79.40
2018-07-09T23:49:14.571Z,79.02
2018-07-09T23:51:41.522Z,79.02
2018-07-09T23:54:08.442Z,79.47
2018-07-09T23:57:22.159Z,79.11
